MET'MAP v2.0
soon released !

Expected late october,
this new version will be
more efficient, smarter,
and hosted on a brand new
server x3 powerfull...
...and still free !


Not compatible ?
Try the mobile version !

LOG IN : | Subscribe | Disclaimer | Who is Orbifly ? |
ICAO code :

TAF - LGSA Ioannis Daskalogiannis - 28 Sep 2020 14:46 UTC - Data Source NOAA   


- Airport Elevation : 490 ft
- IATA code : CHQ
- No reported NOTAMs.


LGSA - Ioannis Daskalogiannis

Latest METAR recorded : 2015/08/11 07:50 LGSA 110750Z 30010KT CAVOK 29/21 Q1012
TAF TAF LGSA
Valid from the 28 at 12:00 until the 29 at 12:00 UTC


281100Z 2812/2912 17015G25KT 9999 FEW020 SCT080
BECMG 2812/2814 26018KT
BECMG 2814/2816 08010KT
PROB30
TEMPO 2812/2816 5000 RA FEW018TCU BKN080
PROB30
TEMPO 2812/2816 3000 TSRA SCT018 FEW018CB BKN030

Source NOAA


MET'MAP, your aeronautical weather chart ! - Copyright ORBIFLY December 2007

Programming & Development : Alexandra Zaïnal
Co-Developer : Marc-Olivier Méhu
Technical & hardware support : Manuel Goepfert
Concept & Financing : Baudouin d'Aumeries